Time;durP1;ratioP1;P1;durP2;ratioP2;P2;SDS_P1;SDS_P2;PMS_P1;PMS_P2;Temp;Humidity;BMP_temperature;BMP_pressure;BME280_temperature;BME280_humidity;BME280_pressure;Samples;Min_cycle;Max_cycle;Signal;HPM_P1;HPM_P2
2021/07/09 00:03:41;;;;;;;0.70;0.67;;;16.30;99.90;;;-143.50;100.00;58913.53;4996622;28;20770;-71
2021/07/09 00:06:10;;;;;;;0.70;0.60;;;16.30;99.90;;;-143.50;100.00;58913.53;4996779;28;20541;-70
2021/07/09 00:08:38;;;;;;;0.80;0.70;;;16.30;99.90;;;-143.50;100.00;58913.53;4992902;28;21084;-70
2021/07/09 00:11:06;;;;;;;0.70;0.60;;;16.30;99.90;;;-143.50;100.00;58913.53;4994677;28;20442;-70
2021/07/09 00:13:34;;;;;;;0.73;0.70;;;16.30;99.90;;;-143.50;100.00;58913.53;4976070;28;21030;-70
2021/07/09 00:16:05;;;;;;;0.70;0.63;;;16.30;99.90;;;-143.50;100.00;58913.53;4977358;28;20543;-70
2021/07/09 00:18:36;;;;;;;0.80;0.70;;;16.40;99.90;;;-143.50;100.00;58913.53;4983563;28;20444;-71
2021/07/09 00:21:06;;;;;;;0.70;0.70;;;16.40;99.90;;;-143.50;100.00;58913.53;4996066;28;20425;-71
2021/07/09 00:23:35;;;;;;;0.70;0.70;;;16.40;99.90;;;-143.50;100.00;58913.53;4978574;28;20524;-71
2021/07/09 00:26:03;;;;;;;0.70;0.60;;;16.40;99.90;;;-143.50;100.00;58913.53;4995989;28;20787;-72
2021/07/09 00:28:31;;;;;;;0.70;0.60;;;16.40;99.90;;;-143.50;100.00;58913.53;4994772;28;20502;-71
2021/07/09 00:30:59;;;;;;;0.70;0.60;;;16.40;99.90;;;-143.50;100.00;58913.53;4994789;28;20450;-71
2021/07/09 00:33:27;;;;;;;0.70;0.60;;;16.40;99.90;;;-143.50;100.00;58913.53;4994623;28;20469;-70
2021/07/09 00:35:54;;;;;;;0.70;0.60;;;16.40;99.90;;;-143.50;100.00;58913.53;5008176;28;20451;-70
2021/07/09 00:38:26;;;;;;;0.70;0.60;;;16.40;99.90;;;-143.50;100.00;58913.53;4976874;28;20474;-71
2021/07/09 00:40:54;;;;;;;0.70;0.70;;;16.40;99.90;;;-143.50;100.00;58913.53;4995662;28;20783;-71
2021/07/09 00:43:21;;;;;;;0.70;0.60;;;16.40;99.90;;;-143.50;100.00;58913.53;4994347;28;20432;-71
2021/07/09 00:45:49;;;;;;;0.70;0.60;;;16.40;99.90;;;-143.50;100.00;58913.53;4994337;28;20446;-72
2021/07/09 00:48:17;;;;;;;0.70;0.63;;;16.40;99.90;;;-143.50;100.00;58913.53;4994268;28;20449;-71
2021/07/09 00:50:45;;;;;;;0.70;0.60;;;16.40;99.90;;;-143.50;100.00;58913.53;4978111;28;20486;-71
2021/07/09 00:53:12;;;;;;;0.70;0.60;;;16.40;99.90;;;-143.50;100.00;58913.53;5010606;28;20509;-71
2021/07/09 00:55:41;;;;;;;0.70;0.70;;;16.40;99.90;;;-143.50;100.00;58913.53;4994300;28;20453;-71
2021/07/09 00:58:09;;;;;;;0.70;0.60;;;16.40;99.90;;;-143.50;100.00;58913.53;4995317;28;20428;-71
2021/07/09 01:00:37;;;;;;;0.70;0.70;;;16.40;99.90;;;-143.50;100.00;58913.53;4993976;28;20447;-70
2021/07/09 01:03:12;;;;;;;0.70;0.60;;;16.40;99.90;;;-143.50;100.00;58913.53;4994552;28;20467;-72
2021/07/09 01:05:41;;;;;;;0.70;0.70;;;16.40;99.90;;;-143.50;100.00;58913.53;5026559;28;20449;-71
2021/07/09 01:08:09;;;;;;;0.70;0.60;;;16.40;99.90;;;-143.50;100.00;58913.53;4993069;28;20468;-71
2021/07/09 01:10:42;;;;;;;0.70;0.60;;;16.40;99.90;;;-143.50;100.00;58913.53;4994114;28;20462;-70
2021/07/09 01:13:10;;;;;;;0.70;0.70;;;16.40;99.90;;;-143.50;100.00;58913.53;4993679;28;20990;-70
2021/07/09 01:15:37;;;;;;;0.70;0.70;;;16.50;99.90;;;-143.50;100.00;58913.53;4994695;28;20444;-71
2021/07/09 01:18:05;;;;;;;0.70;0.60;;;16.50;99.90;;;-143.50;100.00;58913.53;4993767;28;20464;-71
2021/07/09 01:20:33;;;;;;;0.70;0.70;;;16.50;99.90;;;-143.50;100.00;58913.53;4994370;28;20946;-72
2021/07/09 01:23:02;;;;;;;0.70;0.60;;;16.50;99.90;;;-143.50;100.00;58913.53;4976356;28;20469;-71
2021/07/09 01:25:31;;;;;;;0.70;0.70;;;16.50;99.90;;;-143.50;100.00;58913.53;4986523;28;20437;-71
2021/07/09 01:28:05;;;;;;;0.70;0.70;;;16.50;99.90;;;-143.50;100.00;58913.53;4977182;28;20448;-71
2021/07/09 01:30:35;;;;;;;0.70;0.70;;;16.50;99.90;;;-143.50;100.00;58913.53;4992693;28;20776;-71
2021/07/09 01:33:04;;;;;;;0.70;0.60;;;16.50;99.90;;;-143.50;100.00;58913.53;4994787;28;20475;-70
2021/07/09 01:35:32;;;;;;;0.70;0.63;;;16.50;99.90;;;-143.50;100.00;58913.53;4989955;28;20430;-71
2021/07/09 01:38:04;;;;;;;0.70;0.70;;;16.50;99.90;;;-143.50;100.00;58913.53;4977201;28;20458;-71
2021/07/09 01:40:36;;;;;;;0.70;0.60;;;16.50;99.90;;;-143.50;100.00;58913.53;4994492;28;20495;-71
2021/07/09 01:43:06;;;;;;;0.70;0.60;;;16.50;99.90;;;-143.50;100.00;58913.53;4993110;28;20438;-71
2021/07/09 01:45:36;;;;;;;0.70;0.70;;;16.50;99.90;;;-143.50;100.00;58913.53;4993270;28;20457;-71
2021/07/09 01:48:07;;;;;;;0.70;0.60;;;16.50;99.90;;;-143.50;100.00;58913.53;4993310;28;20537;-72
2021/07/09 01:50:53;;;;;;;0.70;0.60;;;16.50;99.90;;;-143.50;100.00;58913.53;4976336;28;20454;-71
2021/07/09 01:53:20;;;;;;;0.70;0.60;;;16.50;99.90;;;-143.50;100.00;58913.53;5010128;28;20527;-71
2021/07/09 01:55:51;;;;;;;0.77;0.70;;;16.50;99.90;;;-143.50;100.00;58913.53;4993206;28;20444;-71
2021/07/09 01:58:19;;;;;;;0.70;0.70;;;16.50;99.90;;;-143.50;100.00;58913.53;4992976;28;20433;-72
2021/07/09 02:00:48;;;;;;;0.70;0.70;;;16.50;99.90;;;-143.50;100.00;58913.53;4992800;28;20938;-72
2021/07/09 02:03:16;;;;;;;0.70;0.70;;;16.50;99.90;;;-143.50;100.00;58913.53;4994332;28;20522;-72
2021/07/09 02:05:44;;;;;;;0.70;0.70;;;16.50;99.90;;;-143.50;100.00;58913.53;4994286;28;20467;-71
2021/07/09 02:08:12;;;;;;;0.70;0.60;;;16.40;99.90;;;-143.50;100.00;58913.53;4992906;28;20508;-71
2021/07/09 02:10:44;;;;;;;0.70;0.60;;;16.40;99.90;;;-143.50;100.00;58913.53;4990379;28;20452;-71
2021/07/09 02:13:13;;;;;;;0.70;0.70;;;16.40;99.90;;;-143.50;100.00;58913.53;4974467;28;20971;-71
2021/07/09 02:15:46;;;;;;;0.70;0.63;;;16.40;99.90;;;-143.50;100.00;58913.53;4988144;28;20516;-71
2021/07/09 02:18:15;;;;;;;0.70;0.70;;;16.40;99.90;;;-143.50;100.00;58913.53;4992340;28;20454;-71
2021/07/09 02:20:44;;;;;;;0.70;0.70;;;16.40;99.90;;;-143.50;100.00;58913.53;4993176;28;20436;-72
2021/07/09 02:23:15;;;;;;;0.70;0.60;;;16.40;99.90;;;-143.50;100.00;58913.53;4993368;28;20475;-70
2021/07/09 02:25:43;;;;;;;0.70;0.60;;;16.40;99.90;;;-143.50;100.00;58913.53;4993748;28;21001;-71
2021/07/09 02:28:11;;;;;;;0.70;0.63;;;16.40;99.90;;;-143.50;100.00;58913.53;4993698;28;20473;-71
2021/07/09 02:30:40;;;;;;;0.70;0.60;;;16.40;99.90;;;-143.50;100.00;58913.53;4994134;28;20441;-72
2021/07/09 02:33:08;;;;;;;0.70;0.60;;;16.40;99.90;;;-143.50;100.00;58913.53;4992938;28;20561;-72
2021/07/09 02:35:39;;;;;;;0.70;0.70;;;16.50;99.90;;;-143.50;100.00;58913.53;4993737;28;20779;-71
2021/07/09 02:38:08;;;;;;;0.77;0.70;;;16.50;99.90;;;-143.50;100.00;58913.53;4993129;28;20458;-71
2021/07/09 02:40:36;;;;;;;0.70;0.70;;;16.50;99.90;;;-143.50;100.00;58913.53;4992585;28;20425;-71
2021/07/09 02:43:06;;;;;;;0.70;0.70;;;16.50;99.90;;;-143.50;100.00;58913.53;5008658;28;20447;-72
2021/07/09 02:45:35;;;;;;;0.70;0.60;;;16.50;99.90;;;-143.50;100.00;58913.53;4993848;28;21003;-71
2021/07/09 02:48:18;;;;;;;0.70;0.60;;;16.50;99.90;;;-143.50;100.00;58913.53;4989763;28;20476;-71
2021/07/09 02:50:47;;;;;;;0.70;0.60;;;16.50;99.90;;;-143.50;100.00;58913.53;4979650;28;20438;-72
2021/07/09 02:53:15;;;;;;;0.70;0.60;;;16.50;99.90;;;-143.50;100.00;58913.53;4993397;28;20472;-71
2021/07/09 02:55:42;;;;;;;0.70;0.60;;;16.60;99.90;;;-143.50;100.00;58913.53;5025054;28;20421;-72
2021/07/09 02:58:11;;;;;;;0.70;0.67;;;16.60;99.90;;;-143.50;100.00;58913.53;4989553;28;20436;-71
2021/07/09 03:00:39;;;;;;;0.70;0.60;;;16.70;99.90;;;-143.50;100.00;58913.53;4993350;28;20511;-72
2021/07/09 03:03:09;;;;;;;0.70;0.60;;;16.70;99.90;;;-143.50;100.00;58913.53;4975963;28;20538;-71
2021/07/09 03:05:38;;;;;;;0.70;0.60;;;16.70;99.90;;;-143.50;100.00;58913.53;4974056;28;20443;-71
2021/07/09 03:08:06;;;;;;;0.70;0.70;;;16.80;99.90;;;-143.50;100.00;58913.53;4987029;28;20516;-71
2021/07/09 03:10:34;;;;;;;0.70;0.60;;;16.80;99.90;;;-143.50;100.00;58913.53;4992303;28;20430;-72
2021/07/09 03:13:02;;;;;;;0.70;0.60;;;16.80;99.90;;;-143.50;100.00;58913.53;4992031;28;20520;-71
2021/07/09 03:15:29;;;;;;;0.70;0.60;;;16.80;99.90;;;-143.50;100.00;58913.53;4993258;28;20422;-71
2021/07/09 03:17:57;;;;;;;0.70;0.60;;;16.80;99.90;;;-143.50;100.00;58913.53;4993320;28;20953;-71
2021/07/09 03:20:25;;;;;;;0.70;0.60;;;16.80;99.90;;;-143.50;100.00;58913.53;5024983;28;20436;-71
2021/07/09 03:22:55;;;;;;;0.70;0.70;;;16.70;99.90;;;-143.50;100.00;58913.53;5006777;28;20461;-71
2021/07/09 03:25:22;;;;;;;0.70;0.60;;;16.60;99.90;;;-143.50;100.00;58913.53;4992175;28;20515;-72
2021/07/09 03:27:50;;;;;;;0.70;0.60;;;16.50;99.90;;;-143.50;100.00;58913.53;4991851;28;20446;-71
2021/07/09 03:30:18;;;;;;;0.70;0.60;;;16.50;99.90;;;-143.50;100.00;58913.53;4991487;28;20517;-71
2021/07/09 03:32:52;;;;;;;0.70;0.60;;;16.50;99.90;;;-143.50;100.00;58913.53;4994950;28;20435;-71
2021/07/09 03:35:19;;;;;;;0.70;0.60;;;16.40;99.90;;;-143.50;100.00;58913.53;4977844;28;20421;-71
2021/07/09 03:37:51;;;;;;;0.70;0.70;;;16.30;99.90;;;-143.50;100.00;58913.53;4976178;28;20495;-71
2021/07/09 03:40:20;;;;;;;0.70;0.60;;;16.30;99.90;;;-143.50;100.00;58913.53;4994130;28;20439;-71
2021/07/09 03:42:48;;;;;;;0.73;0.70;;;16.20;99.90;;;-143.50;100.00;58913.53;4995471;28;21026;-71
2021/07/09 03:45:15;;;;;;;0.70;0.70;;;16.20;99.90;;;-143.50;100.00;58913.53;4996482;28;20447;-71
2021/07/09 03:47:43;;;;;;;0.70;0.63;;;16.20;99.90;;;-143.50;100.00;58913.53;4996567;28;20779;-71
2021/07/09 03:50:12;;;;;;;0.70;0.60;;;16.20;99.90;;;-143.50;100.00;58913.53;4995279;28;20849;-71
2021/07/09 03:52:40;;;;;;;0.70;0.70;;;16.20;99.90;;;-143.50;100.00;58913.53;4996627;28;20435;-71
2021/07/09 03:55:08;;;;;;;0.70;0.70;;;16.20;99.90;;;-143.50;100.00;58913.53;4979362;28;20476;-71
2021/07/09 03:57:37;;;;;;;1.10;1.00;;;16.20;99.90;;;-143.50;100.00;58913.53;4991522;28;20443;-71
2021/07/09 04:00:08;;;;;;;0.70;0.63;;;16.20;99.90;;;-143.50;100.00;58913.53;4981970;28;20508;-70
2021/07/09 04:02:43;;;;;;;1.53;1.43;;;16.20;99.90;;;-143.50;100.00;58913.53;4990437;28;20821;-71
2021/07/09 04:05:12;;;;;;;0.70;0.60;;;16.10;99.90;;;-143.50;100.00;58913.53;4979147;28;20454;-71
2021/07/09 04:07:40;;;;;;;0.70;0.70;;;16.10;99.90;;;-143.50;100.00;58913.53;4995080;28;20525;-71
2021/07/09 04:10:10;;;;;;;0.80;0.77;;;16.10;99.90;;;-143.50;100.00;58913.53;4996405;28;20415;-71
2021/07/09 04:12:39;;;;;;;0.70;0.70;;;16.10;99.90;;;-143.50;100.00;58913.53;4994517;28;20438;-71
2021/07/09 04:15:08;;;;;;;0.70;0.70;;;16.10;99.90;;;-143.50;100.00;58913.53;4993106;28;20537;-70
2021/07/09 04:17:37;;;;;;;0.70;0.60;;;16.10;99.90;;;-143.50;100.00;58913.53;4994492;28;20442;-71
2021/07/09 04:20:06;;;;;;;0.70;0.70;;;16.10;99.90;;;-143.50;100.00;58913.53;4995048;28;20457;-71
2021/07/09 04:22:35;;;;;;;0.70;0.60;;;16.10;99.90;;;-143.50;100.00;58913.53;4994434;28;20428;-71
2021/07/09 04:25:05;;;;;;;0.70;0.67;;;16.10;99.90;;;-143.50;100.00;58913.53;4995997;28;20416;-71
2021/07/09 04:27:33;;;;;;;0.70;0.70;;;16.10;99.90;;;-143.50;100.00;58913.53;4995778;28;20418;-72
2021/07/09 04:30:04;;;;;;;0.80;0.70;;;16.10;99.90;;;-143.50;100.00;58913.53;4995468;28;20435;-71
2021/07/09 04:32:31;;;;;;;0.70;0.70;;;16.10;99.90;;;-143.50;100.00;58913.53;4980313;28;20489;-71
2021/07/09 04:35:00;;;;;;;0.70;0.70;;;16.20;99.90;;;-143.50;100.00;58913.53;4976572;28;20465;-70
2021/07/09 04:37:27;;;;;;;0.70;0.70;;;16.20;99.90;;;-143.50;100.00;58913.53;4976417;28;20458;-70
2021/07/09 04:40:00;;;;;;;0.70;0.70;;;16.20;99.90;;;-143.50;100.00;58913.53;4974944;28;20427;-71
2021/07/09 04:42:28;;;;;;;0.70;0.70;;;16.20;99.90;;;-143.50;100.00;58913.53;4975082;28;20434;-71
2021/07/09 04:44:55;;;;;;;0.70;0.70;;;16.20;99.90;;;-143.50;100.00;58913.53;4971914;28;20442;-71
2021/07/09 04:47:24;;;;;;;0.70;0.60;;;16.20;99.90;;;-143.50;100.00;58913.53;4994374;28;20469;-71
2021/07/09 04:49:52;;;;;;;0.70;0.60;;;16.20;99.90;;;-143.50;100.00;58913.53;4981323;28;20442;-71
2021/07/09 04:52:19;;;;;;;0.80;0.70;;;16.20;99.90;;;-143.50;100.00;58913.53;4975325;28;20988;-71
2021/07/09 04:54:47;;;;;;;0.70;0.70;;;16.20;99.90;;;-143.50;100.00;58913.53;4994946;28;20469;-71
2021/07/09 04:57:15;;;;;;;0.70;0.60;;;16.20;99.90;;;-143.50;100.00;58913.53;4995196;28;20478;-76
2021/07/09 04:59:43;;;;;;;0.70;0.60;;;16.20;99.90;;;-143.50;100.00;58913.53;4977613;28;20437;-71
2021/07/09 05:02:11;;;;;;;0.70;0.60;;;16.30;99.90;;;-143.50;100.00;58913.53;5009869;28;20463;-71
2021/07/09 05:04:40;;;;;;;0.70;0.70;;;16.30;99.90;;;-143.50;100.00;58913.53;4994195;28;20411;-71
2021/07/09 05:07:08;;;;;;;0.70;0.60;;;16.30;99.90;;;-143.50;100.00;58913.53;4993624;28;20448;-71
2021/07/09 05:09:35;;;;;;;0.70;0.60;;;16.30;99.90;;;-143.50;100.00;58913.53;4979156;28;20545;-71
2021/07/09 05:12:03;;;;;;;0.70;0.70;;;16.30;99.90;;;-143.50;100.00;58913.53;4977702;28;20517;-72
2021/07/09 05:14:31;;;;;;;0.70;0.60;;;16.40;99.90;;;-143.50;100.00;58913.53;4977344;28;20471;-72
2021/07/09 05:16:59;;;;;;;0.70;0.60;;;16.30;99.90;;;-143.50;100.00;58913.53;4977673;28;20534;-72
2021/07/09 05:19:27;;;;;;;0.70;0.60;;;16.40;99.90;;;-143.50;100.00;58913.53;4993446;28;20442;-72
2021/07/09 05:21:56;;;;;;;0.70;0.60;;;16.40;99.90;;;-143.50;100.00;58913.53;4979889;28;20509;-72
2021/07/09 05:24:29;;;;;;;0.70;0.63;;;16.40;99.90;;;-143.50;100.00;58913.53;4993241;28;20523;-71
2021/07/09 05:26:57;;;;;;;0.70;0.70;;;16.40;99.90;;;-143.50;100.00;58913.53;4993817;28;20784;-73
2021/07/09 05:29:24;;;;;;;0.70;0.70;;;16.50;99.90;;;-143.50;100.00;58913.53;4994341;28;20530;-72
2021/07/09 05:31:53;;;;;;;0.70;0.60;;;16.40;99.90;;;-143.50;100.00;58913.53;4994757;28;20532;-72
2021/07/09 05:34:23;;;;;;;0.70;0.60;;;16.50;99.90;;;-143.50;100.00;58913.53;4993989;28;20531;-71
2021/07/09 05:36:51;;;;;;;0.70;0.60;;;16.50;99.90;;;-143.50;100.00;58913.53;4993556;28;20945;-72
2021/07/09 05:39:20;;;;;;;0.70;0.60;;;16.50;99.90;;;-143.50;100.00;58913.53;4995045;28;20559;-71
2021/07/09 05:41:48;;;;;;;0.70;0.60;;;16.50;99.90;;;-143.50;100.00;58913.53;4987325;28;20418;-73
2021/07/09 05:44:15;;;;;;;0.70;0.70;;;16.60;99.90;;;-143.50;100.00;58913.53;4973745;28;20517;-72
2021/07/09 05:46:43;;;;;;;0.70;0.60;;;16.70;99.90;;;-143.50;100.00;58913.53;4979577;28;20439;-71
2021/07/09 05:49:10;;;;;;;0.70;0.63;;;16.60;99.90;;;-143.50;100.00;58913.53;4994356;28;20962;-71
2021/07/09 05:51:38;;;;;;;0.70;0.60;;;16.70;99.90;;;-143.50;100.00;58913.53;4994716;28;20419;-72
2021/07/09 05:54:05;;;;;;;0.70;0.60;;;16.70;99.90;;;-143.50;100.00;58913.53;4993310;28;20559;-72
2021/07/09 05:56:34;;;;;;;0.70;0.70;;;16.70;99.90;;;-143.50;100.00;58913.53;5009156;28;20986;-72
2021/07/09 05:59:03;;;;;;;1.27;1.17;;;16.70;99.90;;;-143.50;100.00;58913.53;4991130;28;20438;-72
2021/07/09 06:01:31;;;;;;;0.80;0.80;;;16.70;99.90;;;-143.50;100.00;58913.53;4977086;28;20464;-72
2021/07/09 06:04:00;;;;;;;0.70;0.70;;;16.70;99.90;;;-143.50;100.00;58913.53;4994477;28;20420;-72
2021/07/09 06:06:28;;;;;;;0.70;0.60;;;16.70;99.90;;;-143.50;100.00;58913.53;4992304;28;20474;-72
2021/07/09 06:08:56;;;;;;;0.60;0.60;;;16.80;99.90;;;-143.50;100.00;58913.53;4991932;28;20464;-71
2021/07/09 06:11:25;;;;;;;0.70;0.60;;;16.90;99.90;;;-143.50;100.00;58913.53;4992642;28;20476;-71
2021/07/09 06:13:54;;;;;;;0.70;0.67;;;17.00;99.90;;;-143.50;100.00;58913.53;4992758;28;20449;-72
2021/07/09 06:16:22;;;;;;;0.70;0.63;;;17.00;99.90;;;-143.50;100.00;58913.53;4992412;28;20459;-72
2021/07/09 06:18:50;;;;;;;0.70;0.60;;;17.10;99.90;;;-143.50;100.00;58913.53;4984810;28;20801;-71
2021/07/09 06:21:22;;;;;;;0.70;0.60;;;17.20;99.90;;;-143.50;100.00;58913.53;4994479;28;20449;-71
2021/07/09 06:23:50;;;;;;;0.70;0.70;;;17.30;99.90;;;-143.50;100.00;58913.53;4993902;28;20448;-71
2021/07/09 06:26:18;;;;;;;0.70;0.60;;;17.30;99.90;;;-143.50;100.00;58913.53;4992580;28;20503;-71
2021/07/09 06:28:45;;;;;;;0.70;0.60;;;17.40;99.90;;;-143.50;100.00;58913.53;4976342;28;20522;-71
2021/07/09 06:31:14;;;;;;;0.70;0.60;;;17.40;99.90;;;-143.50;100.00;58913.53;4988870;28;20404;-71
2021/07/09 06:33:42;;;;;;;0.70;0.60;;;17.40;99.90;;;-143.50;100.00;58913.53;4980747;28;20422;-72
2021/07/09 06:36:09;;;;;;;0.70;0.70;;;17.50;99.90;;;-143.50;100.00;58913.53;4985232;28;20504;-70
2021/07/09 06:38:39;;;;;;;0.70;0.60;;;17.50;99.90;;;-143.50;100.00;58913.53;4979709;28;20450;-71
2021/07/09 06:41:07;;;;;;;0.70;0.60;;;17.60;99.90;;;-143.50;100.00;58913.53;4984149;28;20423;-71
2021/07/09 06:43:34;;;;;;;0.70;0.70;;;17.60;99.90;;;-143.50;100.00;58913.53;4993738;28;20446;-71
2021/07/09 06:46:02;;;;;;;0.80;0.70;;;17.70;99.90;;;-143.50;100.00;58913.53;4991980;28;20441;-71
2021/07/09 06:48:31;;;;;;;0.70;0.70;;;17.70;99.90;;;-143.50;100.00;58913.53;4991866;28;20477;-72
2021/07/09 06:50:59;;;;;;;0.70;0.70;;;17.80;99.90;;;-143.50;100.00;58913.53;5000197;28;20439;-71
2021/07/09 06:53:26;;;;;;;0.70;0.70;;;17.90;99.90;;;-143.50;100.00;58913.53;4993467;28;20451;-71
2021/07/09 06:55:54;;;;;;;0.70;0.60;;;18.00;99.90;;;-143.50;100.00;58913.53;4992195;28;21002;-71
2021/07/09 06:58:21;;;;;;;0.70;0.70;;;18.10;99.90;;;-143.50;100.00;58913.53;4991142;28;20530;-71
2021/07/09 07:00:49;;;;;;;0.70;0.60;;;18.20;99.90;;;-143.50;100.00;58913.53;4985434;28;20451;-71
2021/07/09 07:03:16;;;;;;;0.70;0.60;;;18.20;99.90;;;-143.50;100.00;58913.53;4972830;28;20903;-72
2021/07/09 07:05:45;;;;;;;0.70;0.70;;;18.40;99.90;;;-143.50;100.00;58913.53;4978066;28;20466;-72
2021/07/09 07:08:18;;;;;;;0.70;0.70;;;18.50;99.90;;;-143.50;100.00;58913.53;4976025;28;20470;-72
2021/07/09 07:10:49;;;;;;;0.90;0.90;;;18.60;99.90;;;-143.50;100.00;58913.53;4977656;28;20481;-72
2021/07/09 07:13:17;;;;;;;0.70;0.60;;;18.70;99.90;;;-143.50;100.00;58913.53;4978463;28;20798;-72
2021/07/09 07:15:44;;;;;;;1.07;1.07;;;18.60;99.90;;;-143.50;100.00;58913.53;4995808;28;20445;-72
2021/07/09 07:18:12;;;;;;;0.70;0.60;;;18.60;99.90;;;-143.50;100.00;58913.53;4996764;28;20700;-72
2021/07/09 07:20:43;;;;;;;0.97;0.97;;;18.60;99.90;;;-143.50;100.00;58913.53;4995680;28;20518;-72
2021/07/09 07:23:17;;;;;;;0.80;0.70;;;18.60;99.90;;;-143.50;100.00;58913.53;4993678;28;20466;-72
2021/07/09 07:25:46;;;;;;;0.70;0.60;;;18.50;99.90;;;-143.50;100.00;58913.53;4995605;28;20421;-73
2021/07/09 07:28:15;;;;;;;0.70;0.60;;;18.40;99.90;;;-143.50;100.00;58913.53;4995695;28;20464;-72
2021/07/09 07:31:03;;;;;;;0.80;0.80;;;18.40;99.90;;;-143.50;100.00;58913.53;4996769;28;20767;-72
2021/07/09 07:33:30;;;;;;;0.70;0.60;;;18.40;99.90;;;-143.50;100.00;58913.53;4976275;28;20406;-72
2021/07/09 07:36:14;;;;;;;0.70;0.60;;;18.40;99.90;;;-143.50;100.00;58913.53;4994191;28;20805;-72
2021/07/09 07:38:45;;;;;;;0.70;0.60;;;18.50;99.90;;;-143.50;100.00;58913.53;4995986;28;20754;-71
2021/07/09 07:41:13;;;;;;;0.70;0.60;;;18.50;99.90;;;-143.50;100.00;58913.53;5011755;28;20444;-72
2021/07/09 07:43:43;;;;;;;0.70;0.60;;;18.50;99.90;;;-143.50;100.00;58913.53;4994946;28;20789;-72
2021/07/09 07:46:12;;;;;;;0.70;0.60;;;18.40;99.90;;;-143.50;100.00;58913.53;4994620;28;20442;-72
2021/07/09 07:48:41;;;;;;;0.70;0.60;;;18.40;99.90;;;-143.50;100.00;58913.53;4983823;28;20403;-72
2021/07/09 07:51:08;;;;;;;0.70;0.60;;;18.30;99.90;;;-143.50;100.00;58913.53;4996069;28;20455;-73
2021/07/09 07:53:36;;;;;;;0.70;0.70;;;18.30;99.90;;;-143.50;100.00;58913.53;4996532;28;20445;-72
2021/07/09 07:56:08;;;;;;;0.70;0.60;;;18.30;99.90;;;-143.50;100.00;58913.53;4977142;28;20474;-72
2021/07/09 07:58:36;;;;;;;0.70;0.70;;;18.30;99.90;;;-143.50;100.00;58913.53;4996077;28;20457;-72
2021/07/09 08:01:06;;;;;;;0.87;0.80;;;18.40;99.90;;;-143.50;100.00;58913.53;4994226;28;20459;-72
2021/07/09 08:03:33;;;;;;;0.70;0.63;;;18.30;99.90;;;-143.50;100.00;58913.53;4994423;28;20442;-72
2021/07/09 08:06:25;;;;;;;0.70;0.60;;;18.30;99.90;;;-143.50;100.00;58913.53;4980921;28;20427;-73
2021/07/09 08:08:53;;;;;;;0.70;0.60;;;18.30;99.90;;;-143.50;100.00;58913.53;4993317;28;20520;-73
2021/07/09 08:11:22;;;;;;;1.00;0.90;;;18.40;99.90;;;-143.50;100.00;58913.53;4993945;28;20496;-74
2021/07/09 08:13:49;;;;;;;0.80;0.70;;;18.40;99.90;;;-143.50;100.00;58913.53;4988222;28;20440;-72
2021/07/09 08:16:18;;;;;;;0.70;0.70;;;18.60;99.90;;;-143.50;100.00;58913.53;4975668;28;20471;-72
2021/07/09 08:18:45;;;;;;;0.70;0.60;;;18.80;99.90;;;-143.50;100.00;58913.53;4984300;28;20445;-71
2021/07/09 08:21:13;;;;;;;0.70;0.70;;;19.00;99.90;;;-143.50;100.00;58913.53;4996063;28;20529;-72
2021/07/09 08:23:40;;;;;;;0.70;0.60;;;19.20;99.90;;;-143.50;100.00;58913.53;4994591;28;20986;-71
2021/07/09 08:26:12;;;;;;;0.80;0.80;;;19.30;99.90;;;-143.50;100.00;58913.53;4978799;28;20534;-73
2021/07/09 08:28:41;;;;;;;0.70;0.60;;;19.50;99.90;;;-143.50;100.00;58913.53;4994281;28;20525;-71
2021/07/09 08:31:08;;;;;;;0.80;0.73;;;19.70;99.90;;;-143.50;100.00;58913.53;4995248;28;20949;-72
2021/07/09 08:33:36;;;;;;;0.70;0.70;;;19.80;99.90;;;-143.50;100.00;58913.53;4976369;28;20406;-72
2021/07/09 08:36:04;;;;;;;0.90;0.90;;;19.70;99.90;;;-143.50;100.00;58913.53;4987484;28;21037;-72
2021/07/09 08:38:32;;;;;;;0.70;0.60;;;19.60;99.90;;;-143.50;100.00;58913.53;4994310;28;20454;-71
2021/07/09 08:41:00;;;;;;;0.80;0.70;;;19.60;99.90;;;-143.50;100.00;58913.53;4996225;28;20401;-72
2021/07/09 08:43:32;;;;;;;0.70;0.60;;;19.50;99.90;;;-143.50;100.00;58913.53;4992863;28;20900;-73
2021/07/09 08:46:02;;;;;;;0.70;0.60;;;19.60;99.90;;;-143.50;100.00;58913.53;4995272;28;20465;-74
2021/07/09 08:48:36;;;;;;;0.80;0.70;;;19.50;99.90;;;-143.50;100.00;58913.53;4993705;28;20442;-72
2021/07/09 08:51:04;;;;;;;0.80;0.70;;;19.50;99.90;;;-143.50;100.00;58913.53;4989584;28;20450;-72
2021/07/09 08:53:39;;;;;;;0.80;0.70;;;19.40;99.90;;;-143.50;100.00;58913.53;4993918;28;20440;-72
2021/07/09 08:56:06;;;;;;;0.70;0.60;;;19.40;99.90;;;-143.50;100.00;58913.53;4978072;28;20494;-72
2021/07/09 08:58:35;;;;;;;0.70;0.60;;;19.40;99.90;;;-143.50;100.00;58913.53;4977792;28;20447;-72
2021/07/09 09:01:05;;;;;;;0.80;0.80;;;19.50;99.90;;;-143.50;100.00;58913.53;4993797;28;20984;-72
2021/07/09 09:03:36;;;;;;;0.70;0.60;;;19.40;99.90;;;-143.50;100.00;58913.53;4989857;28;20403;-72
2021/07/09 09:06:03;;;;;;;0.80;0.80;;;19.30;99.90;;;-143.50;100.00;58913.53;5020518;28;21141;-71
2021/07/09 09:08:34;;;;;;;0.70;0.70;;;19.30;99.90;;;-143.50;100.00;58913.53;4975367;28;20885;-73
2021/07/09 09:11:02;;;;;;;0.70;0.60;;;19.20;99.90;;;-143.50;100.00;58913.53;4990400;28;20440;-72
2021/07/09 09:13:32;;;;;;;2.00;1.90;;;19.40;99.90;;;-143.50;100.00;58913.53;4993261;28;20505;-72
2021/07/09 09:16:04;;;;;;;0.70;0.60;;;19.50;99.90;;;-143.50;100.00;58913.53;4994900;28;20440;-73
2021/07/09 09:18:39;;;;;;;0.70;0.70;;;19.60;99.90;;;-143.50;100.00;58913.53;5002540;28;20444;-73
2021/07/09 09:21:15;;;;;;;0.70;0.60;;;19.70;99.90;;;-143.50;100.00;58913.53;5001817;28;20442;-73
2021/07/09 09:24:01;;;;;;;0.70;0.70;;;19.80;99.90;;;-143.50;100.00;58913.53;5000352;28;20441;-73
2021/07/09 09:26:50;;;;;;;0.80;0.70;;;20.00;99.90;;;-143.50;100.00;58913.53;4987498;28;20422;-70
2021/07/09 09:29:36;;;;;;;0.70;0.60;;;20.10;99.90;;;-143.50;100.00;58913.53;4997734;28;20414;-72
2021/07/09 09:32:09;;;;;;;0.70;0.60;;;20.00;99.90;;;-143.50;100.00;58913.53;5000931;28;20460;-71
2021/07/09 09:35:28;;;;;;;0.70;0.60;;;20.00;99.90;;;-143.50;100.00;58913.53;4988569;28;20481;-71
2021/07/09 09:38:26;;;;;;;0.80;0.60;;;20.00;99.90;;;-143.50;100.00;58913.53;4987989;28;20444;-71
2021/07/09 09:40:54;;;;;;;0.70;0.70;;;20.00;99.90;;;-143.50;100.00;58913.53;4987688;28;20534;-71
2021/07/09 09:43:25;;;;;;;0.70;0.60;;;20.20;99.90;;;-143.50;100.00;58913.53;4982217;28;20427;-71
2021/07/09 09:46:02;;;;;;;0.70;0.60;;;20.20;99.90;;;-143.50;100.00;58913.53;4983743;28;20415;-71
2021/07/09 09:48:44;;;;;;;0.70;0.67;;;20.00;99.90;;;-143.50;100.00;58913.53;4984884;28;20823;-71
2021/07/09 09:51:34;;;;;;;0.73;0.63;;;19.80;99.90;;;-143.50;100.00;58913.53;4991786;28;20430;-71
2021/07/09 09:54:04;;;;;;;0.80;0.70;;;19.60;99.90;;;-143.50;100.00;58913.53;4989438;28;20470;-71
2021/07/09 09:56:41;;;;;;;0.70;0.70;;;19.40;99.90;;;-143.50;100.00;58913.53;4990348;28;20463;-70
2021/07/09 09:59:15;;;;;;;0.70;0.60;;;19.30;99.90;;;-143.50;100.00;58913.53;4970795;28;20473;-71
2021/07/09 10:01:56;;;;;;;0.80;0.70;;;19.20;99.90;;;-143.50;100.00;58913.53;4994019;28;20541;-71
2021/07/09 10:04:28;;;;;;;0.80;0.70;;;19.20;99.90;;;-143.50;100.00;58913.53;4992775;28;20785;-71
2021/07/09 10:06:57;;;;;;;0.70;0.60;;;19.10;99.90;;;-143.50;100.00;58913.53;4992766;28;20386;-70
2021/07/09 10:09:28;;;;;;;0.70;0.60;;;19.00;99.90;;;-143.50;100.00;58913.53;4992119;28;20549;-71
2021/07/09 10:11:58;;;;;;;0.70;0.60;;;19.00;99.90;;;-143.50;100.00;58913.53;4992754;28;20845;-71
2021/07/09 10:14:28;;;;;;;0.70;0.70;;;18.90;99.90;;;-143.50;100.00;58913.53;4992095;28;20414;-71